createdAt,value
2019-02-20T00:00:20.216Z,5.88
2019-02-20T00:01:20.189Z,5.89
2019-02-20T00:02:20.175Z,5.88
2019-02-20T00:03:20.187Z,5.88
2019-02-20T00:04:20.146Z,5.88
2019-02-20T00:05:20.164Z,5.88
2019-02-20T00:06:20.124Z,5.81
2019-02-20T00:07:20.115Z,5.88
2019-02-20T00:08:20.112Z,6.01
2019-02-20T00:09:20.099Z,6.03
2019-02-20T00:10:20.081Z,6.07
2019-02-20T00:11:20.106Z,6.16
2019-02-20T00:12:20.064Z,6.16
2019-02-20T00:13:20.055Z,6.11
2019-02-20T00:14:20.036Z,6.18
2019-02-20T00:15:20.031Z,6.14
2019-02-20T00:16:20.018Z,6.10
2019-02-20T00:17:20.022Z,6.10
2019-02-20T00:18:19.991Z,6.11
2019-02-20T00:19:20.349Z,6.13
2019-02-20T00:20:19.968Z,6.16
2019-02-20T00:21:19.963Z,6.07
2019-02-20T00:22:19.948Z,6.13
2019-02-20T00:23:19.950Z,6.07
2019-02-20T00:24:19.926Z,6.13
2019-02-20T00:25:19.915Z,6.18
2019-02-20T00:26:19.904Z,6.09
2019-02-20T00:27:19.932Z,6.11
2019-02-20T00:28:19.881Z,6.00
2019-02-20T00:29:19.871Z,6.06
2019-02-20T00:30:19.856Z,6.04
2019-02-20T00:31:19.849Z,6.13
2019-02-20T00:32:19.835Z,6.13
2019-02-20T00:33:19.873Z,6.04
2019-02-20T00:34:19.814Z,6.11
2019-02-20T00:35:19.802Z,6.09
2019-02-20T00:36:19.789Z,5.95
2019-02-20T00:37:19.779Z,6.09
2019-02-20T00:38:19.770Z,5.96
2019-02-20T00:39:19.796Z,6.00
2019-02-20T00:40:19.747Z,6.04
2019-02-20T00:41:19.741Z,6.01
2019-02-20T00:42:19.756Z,6.01
2019-02-20T00:43:19.714Z,6.07
2019-02-20T00:44:19.702Z,6.01
2019-02-20T00:45:19.708Z,6.01
2019-02-20T00:46:19.679Z,6.00
2019-02-20T00:47:19.666Z,5.93
2019-02-20T00:48:19.657Z,5.95
2019-02-20T00:49:19.645Z,6.00
2019-02-20T00:50:19.657Z,5.98
2019-02-20T00:51:19.633Z,5.96
2019-02-20T00:52:19.615Z,5.98
2019-02-20T00:53:19.605Z,5.98
2019-02-20T00:54:19.591Z,6.03
2019-02-20T00:55:19.581Z,5.93
2019-02-20T00:56:19.581Z,6.01
2019-02-20T00:57:19.564Z,5.91
2019-02-20T00:58:19.545Z,5.95
2019-02-20T00:59:19.533Z,6.00
2019-02-20T01:00:19.561Z,5.96
2019-02-20T01:01:19.515Z,5.95
2019-02-20T01:02:19.535Z,5.96
2019-02-20T01:03:19.493Z,6.01
2019-02-20T01:04:19.477Z,5.93
2019-02-20T01:05:19.468Z,5.98
2019-02-20T01:06:19.460Z,6.01
2019-02-20T01:07:19.446Z,5.98
2019-02-20T01:08:19.449Z,6.04
2019-02-20T01:09:19.427Z,6.01
2019-02-20T01:10:19.421Z,5.96
2019-02-20T01:11:19.437Z,5.98
2019-02-20T01:12:19.389Z,5.96
2019-02-20T01:13:19.379Z,6.01
2019-02-20T01:14:19.384Z,6.01
2019-02-20T01:15:19.363Z,5.96
2019-02-20T01:16:19.343Z,5.91
2019-02-20T01:17:19.370Z,5.98
2019-02-20T01:18:19.322Z,5.96
2019-02-20T01:19:19.311Z,5.93
2019-02-20T01:20:19.300Z,5.96
2019-02-20T01:21:19.294Z,5.96
2019-02-20T01:22:19.277Z,5.98
2019-02-20T01:23:19.303Z,5.93
2019-02-20T01:24:19.254Z,5.95
2019-02-20T01:25:19.252Z,6.00
2019-02-20T01:26:19.232Z,6.03
2019-02-20T01:27:19.227Z,6.00
2019-02-20T01:28:19.225Z,5.98
2019-02-20T01:29:19.209Z,5.98
2019-02-20T01:30:19.192Z,5.93
2019-02-20T01:31:19.174Z,5.88
2019-02-20T01:32:19.162Z,5.95
2019-02-20T01:33:19.161Z,5.91
2019-02-20T01:34:19.154Z,6.00
2019-02-20T01:35:19.131Z,5.95
2019-02-20T01:36:19.135Z,5.96
2019-02-20T01:37:19.110Z,5.85
2019-02-20T01:38:19.098Z,5.92
2019-02-20T01:39:19.094Z,5.85
2019-02-20T01:40:19.126Z,5.86
2019-02-20T01:41:19.105Z,5.86
2019-02-20T01:42:19.052Z,5.98
2019-02-20T01:43:19.049Z,5.89
2019-02-20T01:44:19.030Z,5.91
2019-02-20T01:45:19.028Z,5.77
2019-02-20T01:46:19.056Z,5.78
2019-02-20T01:47:19.035Z,5.82
2019-02-20T01:48:18.986Z,5.75
2019-02-20T01:49:18.974Z,5.74
2019-02-20T01:50:18.964Z,5.73
2019-02-20T01:51:18.957Z,5.75
2019-02-20T01:52:18.946Z,5.68
2019-02-20T01:53:18.944Z,5.66
2019-02-20T01:54:18.922Z,5.73
2019-02-20T01:55:18.909Z,5.67
2019-02-20T01:56:18.896Z,5.68
2019-02-20T01:57:18.896Z,5.66
2019-02-20T01:58:18.912Z,5.67
2019-02-20T01:59:18.862Z,5.64
2019-02-20T02:00:18.853Z,5.59
2019-02-20T02:01:18.849Z,5.66
2019-02-20T02:02:18.828Z,5.55
2019-02-20T02:03:18.825Z,5.53
2019-02-20T02:04:18.844Z,5.53
2019-02-20T02:05:18.795Z,5.53
2019-02-20T02:06:18.785Z,5.60
2019-02-20T02:07:18.779Z,5.70
2019-02-20T02:08:18.769Z,5.63
2019-02-20T02:09:18.759Z,5.56
2019-02-20T02:10:18.752Z,5.63
2019-02-20T02:11:18.734Z,5.68
2019-02-20T02:12:18.718Z,5.59
2019-02-20T02:13:18.707Z,5.66
2019-02-20T02:14:18.726Z,5.63
2019-02-20T02:15:20.747Z,5.67
2019-02-20T02:16:18.672Z,5.59
2019-02-20T02:17:18.702Z,5.60
2019-02-20T02:18:18.650Z,5.64
2019-02-20T02:19:18.641Z,5.56
2019-02-20T02:20:18.639Z,5.55
2019-02-20T02:21:18.667Z,5.68
2019-02-20T02:22:18.611Z,5.59
2019-02-20T02:23:20.095Z,5.53
2019-02-20T02:24:18.582Z,5.53
2019-02-20T02:25:18.572Z,5.66
2019-02-20T02:26:18.558Z,5.53
2019-02-20T02:27:18.583Z,5.66
2019-02-20T02:28:18.544Z,5.64
2019-02-20T02:29:18.529Z,5.66
2019-02-20T02:30:18.514Z,5.60
2019-02-20T02:31:18.506Z,5.59
2019-02-20T02:32:18.494Z,5.60
2019-02-20T02:33:18.522Z,5.66
2019-02-20T02:34:18.477Z,5.64
2019-02-20T02:35:18.459Z,5.53
2019-02-20T02:36:18.449Z,5.64
2019-02-20T02:37:18.440Z,5.67
2019-02-20T02:38:18.428Z,5.63
2019-02-20T02:39:18.460Z,5.63
2019-02-20T02:40:18.405Z,5.59
2019-02-20T02:41:18.395Z,5.59
2019-02-20T02:42:18.381Z,5.66
2019-02-20T02:43:18.368Z,5.59
2019-02-20T02:44:18.359Z,5.56
2019-02-20T02:45:18.379Z,5.67
2019-02-20T02:46:18.335Z,5.66
2019-02-20T02:47:18.325Z,5.56
2019-02-20T02:48:18.319Z,5.53
2019-02-20T02:49:18.307Z,5.64
2019-02-20T02:50:18.290Z,5.63
2019-02-20T02:51:18.315Z,5.59
2019-02-20T02:52:18.270Z,5.56
2019-02-20T02:53:18.264Z,5.50
2019-02-20T02:54:18.247Z,5.50
2019-02-20T02:55:18.236Z,5.52
2019-02-20T02:56:18.224Z,5.53
2019-02-20T02:57:18.235Z,5.45
2019-02-20T02:58:18.200Z,5.49
2019-02-20T02:59:18.199Z,5.41
2019-02-20T03:00:18.184Z,5.53
2019-02-20T03:01:18.169Z,5.40
2019-02-20T03:02:18.191Z,5.41
2019-02-20T03:03:18.152Z,5.49
2019-02-20T03:04:18.139Z,5.41
2019-02-20T03:05:18.125Z,5.50
2019-02-20T03:06:18.119Z,5.52
2019-02-20T03:07:18.104Z,5.52
2019-02-20T03:08:18.115Z,5.52
2019-02-20T03:09:18.089Z,5.53
2019-02-20T03:10:18.077Z,5.59
2019-02-20T03:11:18.056Z,5.53
2019-02-20T03:12:18.048Z,5.60
2019-02-20T03:13:18.044Z,5.55
2019-02-20T03:14:18.036Z,5.59
2019-02-20T03:15:18.021Z,5.55
2019-02-20T03:16:18.001Z,5.52
2019-02-20T03:17:18.028Z,5.59
2019-02-20T03:18:17.980Z,5.56
2019-02-20T03:19:17.977Z,5.63
2019-02-20T03:20:17.958Z,5.60
2019-02-20T03:21:17.990Z,5.53
2019-02-20T03:22:17.946Z,5.56
2019-02-20T03:23:17.966Z,5.56
2019-02-20T03:24:17.913Z,5.55
2019-02-20T03:25:17.900Z,5.52
2019-02-20T03:26:17.890Z,5.53
2019-02-20T03:27:17.897Z,5.49
2019-02-20T03:28:17.865Z,5.48
2019-02-20T03:29:17.860Z,5.50
2019-02-20T03:30:17.858Z,5.48
2019-02-20T03:31:17.836Z,5.50
2019-02-20T03:32:17.840Z,5.53
2019-02-20T03:33:17.818Z,5.48
2019-02-20T03:34:17.799Z,5.53
2019-02-20T03:35:17.841Z,5.48
2019-02-20T03:36:17.776Z,5.49
2019-02-20T03:37:17.768Z,5.46
2019-02-20T03:38:17.753Z,5.45
2019-02-20T03:39:17.760Z,5.46
2019-02-20T03:40:17.734Z,5.53
2019-02-20T03:41:17.743Z,5.43
2019-02-20T03:42:17.716Z,5.43
2019-02-20T03:43:17.699Z,5.49
2019-02-20T03:44:17.686Z,5.50
2019-02-20T03:45:17.693Z,5.53
2019-02-20T03:46:17.672Z,5.55
2019-02-20T03:47:20.121Z,5.41
2019-02-20T03:48:17.642Z,5.45
2019-02-20T03:49:17.633Z,5.38
2019-02-20T03:50:17.622Z,5.46
2019-02-20T03:51:17.634Z,5.43
2019-02-20T03:52:17.608Z,5.43
2019-02-20T03:53:17.617Z,5.48
2019-02-20T03:54:17.575Z,5.41
2019-02-20T03:55:17.564Z,5.41
2019-02-20T03:56:17.558Z,5.43
2019-02-20T03:57:17.545Z,5.49
2019-02-20T03:58:17.545Z,5.40
2019-02-20T03:59:17.532Z,5.43
2019-02-20T04:00:17.506Z,5.43
2019-02-20T04:01:17.498Z,5.48
2019-02-20T04:02:17.498Z,5.45
2019-02-20T04:03:17.483Z,5.37
2019-02-20T04:04:17.461Z,5.40
2019-02-20T04:05:17.450Z,5.48
2019-02-20T04:06:17.446Z,5.38
2019-02-20T04:07:17.461Z,5.41
2019-02-20T04:08:17.418Z,5.46
2019-02-20T04:09:17.412Z,5.48
2019-02-20T04:10:17.393Z,5.37
2019-02-20T04:11:17.382Z,5.48
2019-02-20T04:12:17.373Z,5.50
2019-02-20T04:13:17.385Z,5.46
2019-02-20T04:14:17.352Z,5.37
2019-02-20T04:15:17.351Z,5.45
2019-02-20T04:16:17.328Z,5.41
2019-02-20T04:17:17.321Z,5.45
2019-02-20T04:18:17.308Z,5.45
2019-02-20T04:19:17.332Z,5.46
2019-02-20T04:20:17.286Z,5.49
2019-02-20T04:21:17.290Z,5.53
2019-02-20T04:22:17.259Z,5.49
2019-02-20T04:23:17.252Z,5.46
2019-02-20T04:24:17.238Z,5.53
2019-02-20T04:25:17.241Z,5.43
2019-02-20T04:26:17.219Z,5.43
2019-02-20T04:27:17.211Z,5.38
2019-02-20T04:28:17.203Z,5.40
2019-02-20T04:29:17.185Z,5.45
2019-02-20T04:30:17.198Z,5.35
2019-02-20T04:31:17.162Z,5.40
2019-02-20T04:32:17.152Z,5.34
2019-02-20T04:33:17.145Z,5.34
2019-02-20T04:34:17.135Z,5.37
2019-02-20T04:35:17.130Z,5.31
2019-02-20T04:36:17.106Z,5.34
2019-02-20T04:37:17.095Z,5.25
2019-02-20T04:38:17.083Z,5.35
2019-02-20T04:39:17.079Z,5.28
2019-02-20T04:40:17.093Z,5.34
2019-02-20T04:41:17.053Z,5.32
2019-02-20T04:42:17.038Z,5.25
2019-02-20T04:43:17.026Z,5.31
2019-02-20T04:44:17.016Z,5.28
2019-02-20T04:45:17.016Z,5.27
2019-02-20T04:46:17.050Z,5.28
2019-02-20T04:47:16.984Z,5.23
2019-02-20T04:48:16.971Z,5.28
2019-02-20T04:49:16.960Z,5.25
2019-02-20T04:50:16.950Z,5.35
2019-02-20T04:51:16.938Z,5.25
2019-02-20T04:52:16.947Z,5.17
2019-02-20T04:53:16.914Z,5.17
2019-02-20T04:54:16.911Z,5.13
2019-02-20T04:55:16.893Z,5.10
2019-02-20T04:56:16.896Z,5.12
2019-02-20T04:57:16.900Z,5.10
2019-02-20T04:58:16.866Z,5.05
2019-02-20T04:59:16.854Z,5.04
2019-02-20T05:00:16.842Z,5.04
2019-02-20T05:01:16.831Z,4.99
2019-02-20T05:02:16.814Z,4.98
2019-02-20T05:03:16.817Z,4.99
2019-02-20T05:04:16.801Z,4.96
2019-02-20T05:05:16.781Z,5.02
2019-02-20T05:06:16.783Z,4.89
2019-02-20T05:07:16.756Z,4.94
2019-02-20T05:08:16.746Z,4.95
2019-02-20T05:09:16.736Z,4.95
2019-02-20T05:10:16.732Z,4.92
2019-02-20T05:11:16.729Z,4.94
2019-02-20T05:12:16.701Z,4.92
2019-02-20T05:13:16.689Z,4.91
2019-02-20T05:14:16.682Z,4.84
2019-02-20T05:15:16.679Z,4.94
2019-02-20T05:16:16.664Z,4.92
2019-02-20T05:17:16.645Z,4.96
2019-02-20T05:18:16.649Z,4.92
2019-02-20T05:19:16.622Z,4.92
2019-02-20T05:20:16.618Z,4.94
2019-02-20T05:21:16.602Z,4.86
2019-02-20T05:22:16.627Z,4.83
2019-02-20T05:23:16.581Z,4.89
2019-02-20T05:24:24.237Z,4.84
2019-02-20T05:25:17.557Z,4.94
2019-02-20T05:26:16.546Z,4.94
2019-02-20T05:27:16.533Z,4.94
2019-02-20T05:28:16.548Z,4.94
2019-02-20T05:29:16.519Z,4.92
2019-02-20T05:30:16.498Z,4.92
2019-02-20T05:31:16.703Z,4.99
2019-02-20T05:32:16.482Z,4.95
2019-02-20T05:33:16.466Z,4.94
2019-02-20T05:34:16.472Z,4.92
2019-02-20T05:35:16.465Z,4.94
2019-02-20T05:36:16.433Z,4.89
2019-02-20T05:37:16.422Z,4.88
2019-02-20T05:38:16.417Z,4.91
2019-02-20T05:39:16.397Z,4.79
2019-02-20T05:40:16.398Z,4.77
2019-02-20T05:41:16.388Z,4.80
2019-02-20T05:42:16.365Z,4.83
2019-02-20T05:43:16.379Z,4.83
2019-02-20T05:44:16.341Z,4.89
2019-02-20T05:45:16.328Z,4.91
2019-02-20T05:46:16.336Z,4.88
2019-02-20T05:47:16.307Z,4.88
2019-02-20T05:48:16.311Z,4.84
2019-02-20T05:49:16.322Z,4.95
2019-02-20T05:50:16.281Z,4.86
2019-02-20T05:51:16.265Z,4.91
2019-02-20T05:52:16.259Z,4.95
2019-02-20T05:53:16.247Z,4.86
2019-02-20T05:54:16.230Z,4.94
2019-02-20T05:55:16.230Z,4.94
2019-02-20T05:56:16.213Z,4.91
2019-02-20T05:57:16.202Z,4.94
2019-02-20T05:58:16.201Z,4.92
2019-02-20T05:59:16.181Z,4.98
2019-02-20T06:00:16.192Z,4.94
2019-02-20T06:01:16.151Z,4.89
2019-02-20T06:02:16.142Z,4.92
2019-02-20T06:03:16.130Z,4.98
2019-02-20T06:04:16.122Z,4.91
2019-02-20T06:05:16.107Z,4.92
2019-02-20T06:06:16.136Z,4.95
2019-02-20T06:07:16.084Z,4.91
2019-02-20T06:08:16.085Z,4.91
2019-02-20T06:09:16.059Z,5.04
2019-02-20T06:10:16.060Z,4.92
2019-02-20T06:11:16.071Z,5.09
2019-02-20T06:12:16.029Z,5.02
2019-02-20T06:13:16.017Z,4.98
2019-02-20T06:14:16.003Z,4.96
2019-02-20T06:15:15.992Z,4.96
2019-02-20T06:16:15.988Z,4.98
2019-02-20T06:17:16.002Z,5.10
2019-02-20T06:18:15.966Z,5.14
2019-02-20T06:19:15.962Z,4.98
2019-02-20T06:20:15.935Z,4.95
2019-02-20T06:21:16.482Z,5.07
2019-02-20T06:22:15.926Z,5.04
2019-02-20T06:23:15.936Z,5.02
2019-02-20T06:24:15.889Z,5.04
2019-02-20T06:25:15.886Z,5.01
2019-02-20T06:26:15.870Z,5.05
2019-02-20T06:27:15.857Z,4.96
2019-02-20T06:28:15.854Z,4.96
2019-02-20T06:29:15.849Z,5.01
2019-02-20T06:30:15.824Z,5.04
2019-02-20T06:31:15.846Z,5.01
2019-02-20T06:32:15.803Z,5.05
2019-02-20T06:33:15.789Z,4.99
2019-02-20T06:34:15.793Z,5.04
2019-02-20T06:35:15.774Z,5.04
2019-02-20T06:36:15.757Z,5.13
2019-02-20T06:37:15.871Z,5.17
2019-02-20T06:38:15.742Z,5.12
2019-02-20T06:39:15.722Z,5.12
2019-02-20T06:40:15.724Z,5.13
2019-02-20T06:41:15.701Z,5.12
2019-02-20T06:42:15.690Z,5.12
2019-02-20T06:43:15.688Z,5.09
2019-02-20T06:44:15.666Z,5.14
2019-02-20T06:45:15.655Z,5.19
2019-02-20T06:46:15.647Z,5.25
2019-02-20T06:47:15.661Z,5.34
2019-02-20T06:48:15.635Z,5.37
2019-02-20T06:49:15.610Z,5.25
2019-02-20T06:50:15.597Z,5.37
2019-02-20T06:51:15.587Z,5.27
2019-02-20T06:52:15.580Z,5.34
2019-02-20T06:53:15.583Z,5.38
2019-02-20T06:54:15.553Z,5.41
2019-02-20T06:55:15.544Z,5.34
2019-02-20T06:56:15.540Z,5.43
2019-02-20T06:57:15.519Z,5.40
2019-02-20T06:58:15.534Z,5.48
2019-02-20T06:59:15.498Z,5.49
2019-02-20T07:00:15.489Z,5.45
2019-02-20T07:01:15.473Z,5.55
2019-02-20T07:02:15.464Z,5.48
2019-02-20T07:03:15.480Z,5.50
2019-02-20T07:04:15.449Z,5.59
2019-02-20T07:05:15.431Z,5.63
2019-02-20T07:06:15.465Z,5.60
2019-02-20T07:07:15.407Z,5.64
2019-02-20T07:08:15.393Z,5.60
2019-02-20T07:09:15.397Z,5.66
2019-02-20T07:10:15.380Z,5.67
2019-02-20T07:11:15.361Z,5.68
2019-02-20T07:12:15.365Z,5.68
2019-02-20T07:13:15.340Z,5.70
2019-02-20T07:14:15.363Z,5.67
2019-02-20T07:15:15.317Z,5.67
2019-02-20T07:16:15.321Z,5.77
2019-02-20T07:17:15.301Z,5.67
2019-02-20T07:18:15.283Z,5.67
2019-02-20T07:19:15.273Z,5.75
2019-02-20T07:20:15.274Z,5.64
2019-02-20T07:21:15.251Z,5.75
2019-02-20T07:22:15.248Z,5.70
2019-02-20T07:23:15.228Z,5.74
2019-02-20T07:24:15.216Z,5.74
2019-02-20T07:25:15.224Z,5.77
2019-02-20T07:26:15.192Z,5.74
2019-02-20T07:27:15.184Z,5.77
2019-02-20T07:28:15.180Z,5.71
2019-02-20T07:29:15.162Z,5.78
2019-02-20T07:30:15.163Z,5.85
2019-02-20T07:31:15.138Z,5.86
2019-02-20T07:32:15.128Z,5.86
2019-02-20T07:33:15.119Z,5.88
2019-02-20T07:34:15.112Z,5.92
2019-02-20T07:35:15.116Z,5.98
2019-02-20T07:36:15.086Z,5.92
2019-02-20T07:37:15.087Z,6.01
2019-02-20T07:38:15.062Z,5.95
2019-02-20T07:39:15.047Z,6.09
2019-02-20T07:40:15.043Z,6.07
2019-02-20T07:41:15.040Z,6.14
2019-02-20T07:42:15.028Z,6.18
2019-02-20T07:43:15.016Z,6.09
2019-02-20T07:44:14.993Z,6.19
2019-02-20T07:45:14.983Z,6.30
2019-02-20T07:46:14.976Z,6.28
2019-02-20T07:47:14.960Z,6.30
2019-02-20T07:48:14.961Z,6.33
2019-02-20T07:49:14.936Z,6.36
2019-02-20T07:50:14.928Z,6.33
2019-02-20T07:51:14.985Z,6.40
2019-02-20T07:52:14.909Z,6.28
2019-02-20T07:53:14.904Z,6.33
2019-02-20T07:54:14.892Z,6.40
2019-02-20T07:55:14.870Z,6.38
2019-02-20T07:56:14.866Z,6.35
2019-02-20T07:57:14.853Z,6.44
2019-02-20T07:58:14.881Z,6.46
2019-02-20T07:59:14.826Z,6.46
2019-02-20T08:00:14.816Z,6.51
2019-02-20T08:01:14.801Z,6.36
2019-02-20T08:02:14.790Z,6.48
2019-02-20T08:03:14.785Z,6.51
2019-02-20T08:04:14.788Z,6.54
2019-02-20T08:05:14.788Z,6.50
2019-02-20T08:06:14.745Z,6.53
2019-02-20T08:07:14.736Z,6.56
2019-02-20T08:08:14.734Z,6.54
2019-02-20T08:09:14.712Z,6.51
2019-02-20T08:10:14.708Z,6.50
2019-02-20T08:11:14.704Z,6.50
2019-02-20T08:12:14.679Z,6.58
2019-02-20T08:13:14.668Z,6.50
2019-02-20T08:14:14.655Z,6.53
2019-02-20T08:15:14.680Z,6.59
2019-02-20T08:16:14.642Z,6.62
2019-02-20T08:17:14.629Z,6.61
2019-02-20T08:18:14.614Z,6.51
2019-02-20T08:19:14.606Z,6.59
2019-02-20T08:20:14.590Z,6.63
2019-02-20T08:21:14.590Z,6.71
2019-02-20T08:22:14.582Z,6.71
2019-02-20T08:23:14.556Z,6.72
2019-02-20T08:24:14.544Z,6.83
2019-02-20T08:25:22.463Z,6.71
2019-02-20T08:26:15.521Z,6.76
2019-02-20T08:27:14.511Z,6.73
2019-02-20T08:28:14.509Z,6.89
2019-02-20T08:29:14.487Z,6.90
2019-02-20T08:30:14.477Z,6.91
2019-02-20T08:31:14.491Z,6.94
2019-02-20T08:32:14.464Z,6.91
2019-02-20T08:33:14.443Z,7.02
2019-02-20T08:34:14.436Z,6.94
2019-02-20T08:35:14.429Z,6.87
2019-02-20T08:36:14.420Z,6.98
2019-02-20T08:37:14.412Z,6.91
2019-02-20T08:38:14.385Z,6.91
2019-02-20T08:39:14.377Z,6.94
2019-02-20T08:40:14.372Z,6.91
2019-02-20T08:41:14.364Z,6.90
2019-02-20T08:42:14.341Z,7.09
2019-02-20T08:43:14.345Z,6.95
2019-02-20T08:44:14.320Z,6.99
2019-02-20T08:45:14.307Z,6.97
2019-02-20T08:46:14.341Z,6.94
2019-02-20T08:47:14.299Z,7.04
2019-02-20T08:48:14.275Z,7.05
2019-02-20T08:49:14.263Z,7.12
2019-02-20T08:50:14.253Z,7.12
2019-02-20T08:51:14.242Z,7.13
2019-02-20T08:52:14.260Z,7.22
2019-02-20T08:53:14.219Z,7.17
2019-02-20T08:54:14.207Z,7.20
2019-02-20T08:55:14.232Z,7.26
2019-02-20T08:56:14.186Z,7.29
2019-02-20T08:57:14.173Z,7.22
2019-02-20T08:58:14.171Z,7.32
2019-02-20T08:59:14.153Z,7.44
2019-02-20T09:00:14.144Z,7.44
2019-02-20T09:01:14.141Z,7.42
2019-02-20T09:02:14.116Z,7.55
2019-02-20T09:03:14.107Z,7.60
2019-02-20T09:04:14.107Z,7.66
2019-02-20T09:05:14.146Z,7.67
2019-02-20T09:06:14.087Z,7.60
2019-02-20T09:07:14.064Z,7.67
2019-02-20T09:08:14.058Z,7.71
2019-02-20T09:09:14.044Z,7.63
2019-02-20T09:10:14.052Z,7.78
2019-02-20T09:11:14.030Z,7.77
2019-02-20T09:12:14.015Z,7.85
2019-02-20T09:13:13.996Z,7.79
2019-02-20T09:14:13.984Z,7.82
2019-02-20T09:15:13.974Z,7.87
2019-02-20T09:16:13.990Z,7.89
2019-02-20T09:17:13.950Z,7.82
2019-02-20T09:18:13.939Z,7.89
2019-02-20T09:19:13.928Z,7.89
2019-02-20T09:20:13.917Z,7.96
2019-02-20T09:21:13.926Z,7.96
2019-02-20T09:22:13.939Z,8.00
2019-02-20T09:23:13.889Z,7.96
2019-02-20T09:24:13.873Z,7.92
2019-02-20T09:25:19.950Z,8.03
2019-02-20T09:26:14.847Z,7.94
2019-02-20T09:27:13.838Z,8.04
2019-02-20T09:28:13.869Z,8.02
2019-02-20T09:29:13.826Z,8.02
2019-02-20T09:30:13.808Z,7.89
2019-02-20T09:31:13.793Z,7.90
2019-02-20T09:32:13.784Z,7.87
2019-02-20T09:33:13.770Z,7.90
2019-02-20T09:34:13.799Z,7.89
2019-02-20T09:35:13.748Z,7.87
2019-02-20T09:36:13.760Z,7.96
2019-02-20T09:37:13.732Z,7.96
2019-02-20T09:38:13.740Z,8.03
2019-02-20T09:39:13.703Z,8.00
2019-02-20T09:40:13.751Z,7.96
2019-02-20T09:41:13.680Z,8.03
2019-02-20T09:42:13.670Z,8.02
2019-02-20T09:43:13.665Z,7.97
2019-02-20T09:44:13.647Z,8.18
2019-02-20T09:45:13.636Z,8.20
2019-02-20T09:46:13.659Z,8.30
2019-02-20T09:47:13.615Z,8.36
2019-02-20T09:48:13.602Z,8.39
2019-02-20T09:49:13.591Z,8.48
2019-02-20T09:50:13.579Z,8.51
2019-02-20T09:51:13.569Z,8.57
2019-02-20T09:52:13.584Z,8.63
2019-02-20T09:53:13.547Z,8.60
2019-02-20T09:54:13.535Z,8.65
2019-02-20T09:55:13.524Z,8.62
2019-02-20T09:56:16.040Z,8.62
2019-02-20T09:57:13.534Z,8.63
2019-02-20T09:58:13.498Z,8.54
2019-02-20T09:59:13.476Z,8.60
2019-02-20T10:00:13.465Z,8.65
2019-02-20T10:01:13.457Z,8.60
2019-02-20T10:02:13.442Z,8.63
2019-02-20T10:03:13.446Z,8.62
2019-02-20T10:04:13.433Z,8.66
2019-02-20T10:05:13.414Z,8.62
2019-02-20T10:06:13.400Z,8.65
2019-02-20T10:07:13.388Z,8.58
2019-02-20T10:08:13.388Z,8.51
2019-02-20T10:09:13.365Z,8.65
2019-02-20T10:10:13.385Z,8.65
2019-02-20T10:11:13.344Z,8.76
2019-02-20T10:12:13.340Z,8.83
2019-02-20T10:13:13.317Z,8.91
2019-02-20T10:14:13.309Z,8.97
2019-02-20T10:15:13.318Z,9.05
2019-02-20T10:16:13.289Z,8.88
2019-02-20T10:17:13.275Z,8.86
2019-02-20T10:18:13.262Z,8.93
2019-02-20T10:19:13.252Z,8.88
2019-02-20T10:20:13.242Z,8.96
2019-02-20T10:21:13.262Z,8.90
2019-02-20T10:22:13.223Z,8.86
2019-02-20T10:23:13.207Z,8.91
2019-02-20T10:24:13.191Z,8.76
2019-02-20T10:25:13.179Z,8.79
2019-02-20T10:26:13.174Z,8.75
2019-02-20T10:27:13.182Z,8.88
2019-02-20T10:28:13.151Z,8.79
2019-02-20T10:29:13.139Z,8.90
2019-02-20T10:30:13.127Z,8.83
2019-02-20T10:31:13.120Z,8.76
2019-02-20T10:32:13.103Z,8.87
2019-02-20T10:33:13.104Z,8.75
2019-02-20T10:34:13.085Z,8.68
2019-02-20T10:35:13.070Z,8.68
2019-02-20T10:36:13.057Z,8.72
2019-02-20T10:37:13.043Z,8.73
2019-02-20T10:38:13.069Z,8.68
2019-02-20T10:39:13.026Z,8.76
2019-02-20T10:40:13.022Z,8.78
2019-02-20T10:41:12.999Z,8.81
2019-02-20T10:42:12.988Z,8.90
2019-02-20T10:43:12.978Z,8.97
2019-02-20T10:44:13.004Z,9.04
2019-02-20T10:45:12.959Z,9.18
2019-02-20T10:46:12.964Z,9.28
2019-02-20T10:47:12.934Z,9.30
2019-02-20T10:48:12.919Z,9.34
2019-02-20T10:49:12.908Z,9.32
2019-02-20T10:50:12.921Z,9.45
2019-02-20T10:51:12.889Z,9.43
2019-02-20T10:52:12.901Z,9.40
2019-02-20T10:53:12.866Z,9.42
2019-02-20T10:54:12.851Z,9.43
2019-02-20T10:55:12.861Z,9.42
2019-02-20T10:56:12.834Z,9.46
2019-02-20T10:57:12.857Z,9.46
2019-02-20T10:58:12.816Z,9.52
2019-02-20T10:59:12.797Z,9.43
2019-02-20T11:00:23.162Z,9.53
2019-02-20T11:01:13.777Z,9.53
2019-02-20T11:02:12.769Z,9.58
2019-02-20T11:03:12.765Z,9.58
2019-02-20T11:04:12.748Z,9.63
2019-02-20T11:05:12.766Z,9.48
2019-02-20T11:06:12.730Z,9.53
2019-02-20T11:07:12.706Z,9.50
2019-02-20T11:08:12.716Z,9.45
2019-02-20T11:09:12.682Z,9.45
2019-02-20T11:10:12.678Z,9.43
2019-02-20T11:11:12.658Z,9.42
2019-02-20T11:12:12.648Z,9.43
2019-02-20T11:13:12.638Z,9.49
2019-02-20T11:14:12.639Z,9.43
2019-02-20T11:15:13.162Z,9.50
2019-02-20T11:16:12.610Z,9.48
2019-02-20T11:17:12.592Z,9.64
2019-02-20T11:18:12.581Z,9.64
2019-02-20T11:19:12.602Z,9.60
2019-02-20T11:20:13.804Z,9.67
2019-02-20T11:21:12.546Z,9.67
2019-02-20T11:22:12.544Z,9.78
2019-02-20T11:23:12.527Z,9.75
2019-02-20T11:24:12.515Z,9.86
2019-02-20T11:25:12.526Z,9.79
2019-02-20T11:26:18.283Z,9.81
2019-02-20T11:27:13.482Z,9.89
2019-02-20T11:28:12.472Z,9.79
2019-02-20T11:29:12.456Z,9.75
2019-02-20T11:30:12.460Z,9.76
2019-02-20T11:31:12.457Z,9.86
2019-02-20T11:32:12.423Z,9.91
2019-02-20T11:33:12.413Z,9.89
2019-02-20T11:34:12.417Z,9.93
2019-02-20T11:35:12.389Z,9.97
2019-02-20T11:36:12.378Z,10.06
2019-02-20T11:37:12.386Z,9.94
2019-02-20T11:38:14.155Z,9.93
2019-02-20T11:39:12.345Z,10.03
2019-02-20T11:40:12.343Z,10.00
2019-02-20T11:41:13.545Z,10.04
2019-02-20T11:42:12.348Z,9.89
2019-02-20T11:43:12.300Z,9.93
2019-02-20T11:44:20.650Z,9.94
2019-02-20T11:45:13.279Z,9.99
2019-02-20T11:46:12.279Z,10.03
2019-02-20T11:47:12.254Z,10.14
2019-02-20T11:48:12.255Z,10.00
2019-02-20T11:49:12.231Z,10.03
2019-02-20T11:50:12.221Z,10.04
2019-02-20T11:51:12.210Z,10.01
2019-02-20T11:52:12.204Z,9.99
2019-02-20T11:53:12.198Z,10.03
2019-02-20T11:54:12.182Z,9.91
2019-02-20T11:55:12.165Z,9.94
2019-02-20T11:56:12.379Z,9.94
2019-02-20T11:57:13.933Z,9.99
2019-02-20T11:58:12.184Z,10.01
2019-02-20T11:59:12.123Z,9.94
2019-02-20T12:00:12.109Z,10.00
2019-02-20T12:01:12.099Z,9.97
2019-02-20T12:02:12.086Z,9.94
2019-02-20T12:03:12.078Z,9.96
2019-02-20T12:04:12.087Z,9.97
2019-02-20T12:05:12.050Z,10.00
2019-02-20T12:06:12.042Z,9.96
2019-02-20T12:07:12.029Z,10.04
2019-02-20T12:08:12.029Z,9.89
2019-02-20T12:09:12.022Z,9.99
2019-02-20T12:10:12.783Z,9.91
2019-02-20T12:11:11.985Z,9.91
2019-02-20T12:12:11.974Z,9.91
2019-02-20T12:13:11.963Z,9.93
2019-02-20T12:14:11.997Z,9.94
2019-02-20T12:15:11.940Z,9.86
2019-02-20T12:16:11.942Z,9.82
2019-02-20T12:17:11.916Z,9.73
2019-02-20T12:18:17.320Z,9.75
2019-02-20T12:19:12.906Z,9.83
2019-02-20T12:20:11.898Z,9.91
2019-02-20T12:21:11.874Z,9.94
2019-02-20T12:22:11.870Z,9.96
2019-02-20T12:23:11.848Z,9.93
2019-02-20T12:24:11.990Z,9.94
2019-02-20T12:25:11.881Z,9.97
2019-02-20T12:26:11.815Z,9.89
2019-02-20T12:27:11.805Z,9.94
2019-02-20T12:28:11.799Z,9.93
2019-02-20T12:29:11.785Z,9.94
2019-02-20T12:30:11.777Z,9.96
2019-02-20T12:31:11.772Z,10.03
2019-02-20T12:32:11.790Z,10.14
2019-02-20T12:33:11.737Z,10.18
2019-02-20T12:34:11.724Z,10.14
2019-02-20T12:35:11.715Z,10.22
2019-02-20T12:36:11.706Z,10.19
2019-02-20T12:37:11.697Z,10.22
2019-02-20T12:38:11.691Z,10.28
2019-02-20T12:39:11.670Z,10.26
2019-02-20T12:40:11.657Z,10.19
2019-02-20T12:41:11.646Z,10.15
2019-02-20T12:42:12.977Z,10.28
2019-02-20T12:43:11.660Z,10.26
2019-02-20T12:44:11.612Z,10.21
2019-02-20T12:45:11.600Z,10.06
2019-02-20T12:46:11.591Z,10.09
2019-02-20T12:47:11.577Z,10.01
2019-02-20T12:48:11.569Z,9.94
2019-02-20T12:49:11.600Z,9.96
2019-02-20T12:50:11.547Z,10.01
2019-02-20T12:51:11.535Z,9.96
2019-02-20T12:52:11.521Z,9.88
2019-02-20T12:53:11.514Z,9.93
2019-02-20T12:54:11.505Z,9.97
2019-02-20T12:55:11.503Z,9.93
2019-02-20T12:56:11.477Z,10.03
2019-02-20T12:57:11.466Z,9.99
2019-02-20T12:58:11.456Z,9.94
2019-02-20T12:59:11.442Z,9.91
2019-02-20T13:00:11.469Z,10.04
2019-02-20T13:01:11.422Z,9.96
2019-02-20T13:02:11.416Z,9.91
2019-02-20T13:03:11.401Z,9.96
2019-02-20T13:04:11.386Z,10.07
2019-02-20T13:05:11.374Z,10.15
2019-02-20T13:06:11.391Z,10.14
2019-02-20T13:07:11.355Z,10.01
2019-02-20T13:08:11.342Z,9.93
2019-02-20T13:09:11.355Z,10.06
2019-02-20T13:10:11.320Z,10.12
2019-02-20T13:11:11.323Z,10.09
2019-02-20T13:12:11.308Z,10.03
2019-02-20T13:13:11.287Z,10.15
2019-02-20T13:14:11.275Z,10.07
2019-02-20T13:15:11.265Z,10.01
2019-02-20T13:16:11.292Z,10.07